Airfield :
LOGIN :

Register | Disclaimer

   EN    FR    IT 

 










Legend :    VFR   Marginal VFR   IFR   Intensive IFR   Very Intensive IFR
Visi :
Ceiling :
>= 8 km
>= 3000ft
5 to 8 km
1000 to 3000 ft
1500m to 5 km
500 to 1000 ft
800 to 1500m
200 to 500 ft
< 800m
< 200 ft
Symbols :   Thunderstorms  Fog  Heavy snow  Heavy precipitations  Wind > 20 kt
SIGMETs :     Misc.  Thunderstorms  Icing  Turbulence  Mountain Waves  Volcanic Ashes







- Airport Elevation : 102 ft
- IATA code : KEL


EDHK - Holtenau

CURRENT METAR :
  • 211250Z 24008KT 200V270 9999 FEW029 BKN040 18/12 Q1027

EXPIRED METARs :
  • 211220Z 23008KT 9999 FEW029 BKN050 17/12 Q1027
  • 211150Z 23009KT 200V260 9999 VCSH FEW029 BKN054 18/12 Q1027
  • 211050Z 26007KT 230V310 9999 VCSH FEW029 17/12 Q1027

TAF TAF EDHK
Valid from the 21 at 12:00 until the 21 at 18:00 UTC


211100Z 2112/2118 25008KT 9999 SCT030
PROB30
TEMPO 2112/2115 SHRA BKN020CB
BECMG 2116/2118 VRB03KT
No reported NOTAMs for that airfield.



MET'MAP, your aeronautical weather chart ! - Copyright ORBIFLY December 2007 - Disclaimer

ORBIFLY MET'MAP TEAM :

Programming & Development : Alexandra Zaïnal
Concept & Development : Baudouin d'Aumeries
Co-Development & Prog : Marc-Olivier Méhu
Technical & hardware support : Manuel Goepfert

Contact : metmap@orbifly.com




SOURCES & CREDITS :

   NOAA